createdAt,value
2022-09-06T00:01:23.323Z,70.70
2022-09-06T00:03:50.550Z,70.90
2022-09-06T00:06:19.109Z,71.10
2022-09-06T00:08:47.393Z,71.10
2022-09-06T00:11:15.264Z,71.60
2022-09-06T00:13:42.556Z,71.80
2022-09-06T00:16:20.454Z,71.50
2022-09-06T00:18:47.491Z,71.50
2022-09-06T00:21:26.544Z,71.40
2022-09-06T00:23:54.020Z,71.50
2022-09-06T00:26:21.610Z,71.40
2022-09-06T00:28:48.989Z,71.10
2022-09-06T00:31:19.215Z,71.40
2022-09-06T00:33:46.409Z,71.40
2022-09-06T00:36:13.638Z,71.40
2022-09-06T00:38:41.473Z,71.50
2022-09-06T00:41:11.404Z,71.50
2022-09-06T00:43:38.524Z,71.40
2022-09-06T00:46:07.357Z,71.40
2022-09-06T00:48:35.271Z,71.30
2022-09-06T00:51:05.779Z,71.30
2022-09-06T00:53:32.716Z,71.50
2022-09-06T00:55:59.944Z,71.70
2022-09-06T00:58:27.257Z,71.90
2022-09-06T01:00:54.086Z,72.00
2022-09-06T01:03:24.352Z,72.00
2022-09-06T01:06:02.478Z,72.10
2022-09-06T01:08:39.832Z,72.20
2022-09-06T01:11:16.949Z,72.40
2022-09-06T01:14:01.540Z,72.60
2022-09-06T01:16:51.839Z,72.50
2022-09-06T01:19:24.285Z,72.50
2022-09-06T01:22:34.222Z,72.70
2022-09-06T01:25:18.891Z,72.70
2022-09-06T01:28:23.398Z,72.80
2022-09-06T01:31:18.307Z,72.90
2022-09-06T01:34:03.576Z,72.90
2022-09-06T01:36:54.339Z,73.10
2022-09-06T01:39:32.750Z,73.30
2022-09-06T01:42:02.174Z,73.40
2022-09-06T01:44:30.517Z,73.10
2022-09-06T01:47:16.706Z,73.50
2022-09-06T01:50:05.163Z,73.90
2022-09-06T01:53:04.774Z,73.90
2022-09-06T01:55:46.982Z,74.10
2022-09-06T01:58:41.537Z,74.10
2022-09-06T02:01:37.768Z,74.10
2022-09-06T02:04:11.170Z,74.30
2022-09-06T02:06:47.306Z,74.20
2022-09-06T02:09:20.229Z,74.50
2022-09-06T02:12:06.071Z,74.50
2022-09-06T02:14:45.356Z,74.40
2022-09-06T02:17:15.649Z,74.70
2022-09-06T02:19:49.446Z,74.80
2022-09-06T02:22:20.465Z,75.00
2022-09-06T02:24:51.445Z,75.40
2022-09-06T02:27:18.247Z,75.60
2022-09-06T02:29:44.975Z,75.80
2022-09-06T02:32:18.812Z,76.00
2022-09-06T02:34:46.215Z,76.20
2022-09-06T02:37:15.124Z,76.20
2022-09-06T02:39:41.897Z,76.20
2022-09-06T02:42:11.267Z,76.30
2022-09-06T02:44:37.940Z,76.20
2022-09-06T02:47:05.014Z,76.30
2022-09-06T02:49:31.775Z,76.30
2022-09-06T02:51:58.876Z,76.40
2022-09-06T02:54:25.559Z,76.30
2022-09-06T02:56:52.671Z,76.60
2022-09-06T02:59:19.460Z,76.30
2022-09-06T03:01:46.199Z,76.10
2022-09-06T03:04:12.919Z,76.10
2022-09-06T03:06:39.570Z,76.00
2022-09-06T03:09:06.243Z,75.80
2022-09-06T03:11:32.929Z,75.90
2022-09-06T03:13:59.580Z,75.90
2022-09-06T03:16:26.311Z,75.90
2022-09-06T03:18:53.040Z,75.80
2022-09-06T03:21:19.724Z,75.70
2022-09-06T03:23:46.390Z,75.90
2022-09-06T03:26:13.108Z,75.80
2022-09-06T03:28:39.898Z,75.90
2022-09-06T03:31:06.741Z,76.10
2022-09-06T03:33:33.581Z,76.20
2022-09-06T03:36:01.777Z,76.30
2022-09-06T03:38:29.319Z,76.30
2022-09-06T03:40:56.369Z,76.30
2022-09-06T03:43:24.981Z,76.30
2022-09-06T03:45:54.215Z,76.30
2022-09-06T03:48:22.558Z,76.30
2022-09-06T03:50:51.891Z,76.40
2022-09-06T03:53:19.068Z,76.40
2022-09-06T03:55:47.158Z,76.50
2022-09-06T03:58:14.447Z,76.50
2022-09-06T04:00:41.435Z,76.70
2022-09-06T04:03:08.637Z,76.70
2022-09-06T04:05:35.531Z,76.70
2022-09-06T04:08:02.472Z,76.90
2022-09-06T04:10:29.488Z,77.00
2022-09-06T04:12:56.152Z,77.10
2022-09-06T04:15:22.961Z,77.30
2022-09-06T04:17:49.708Z,77.30
2022-09-06T04:20:17.339Z,77.40
2022-09-06T04:22:44.133Z,77.30
2022-09-06T04:25:10.939Z,77.40
2022-09-06T04:27:37.648Z,77.40
2022-09-06T04:30:05.940Z,77.40
2022-09-06T04:32:32.648Z,77.30
2022-09-06T04:34:59.369Z,77.30
2022-09-06T04:37:26.093Z,77.20
2022-09-06T04:39:52.783Z,77.00
2022-09-06T04:42:19.655Z,77.10
2022-09-06T04:44:46.308Z,77.00
2022-09-06T04:47:15.388Z,76.80
2022-09-06T04:49:42.714Z,76.80
2022-09-06T04:52:09.767Z,76.60
2022-09-06T04:54:36.501Z,76.80
2022-09-06T04:57:03.341Z,76.70
2022-09-06T04:59:30.288Z,76.80
2022-09-06T05:01:57.095Z,76.80
2022-09-06T05:04:24.005Z,76.80
2022-09-06T05:07:00.988Z,76.70
2022-09-06T05:09:27.979Z,76.70
2022-09-06T05:11:54.664Z,76.70
2022-09-06T05:14:21.784Z,76.70
2022-09-06T05:16:48.651Z,76.90
2022-09-06T05:19:15.629Z,76.80
2022-09-06T05:21:42.425Z,76.80
2022-09-06T05:24:09.117Z,76.70
2022-09-06T05:26:35.836Z,76.80
2022-09-06T05:29:02.595Z,77.00
2022-09-06T05:31:34.454Z,77.00
2022-09-06T05:34:01.418Z,77.00
2022-09-06T05:36:29.868Z,77.00
2022-09-06T05:38:57.459Z,77.20
2022-09-06T05:41:24.928Z,77.30
2022-09-06T05:43:51.604Z,77.30
2022-09-06T05:46:18.437Z,77.10
2022-09-06T05:48:52.698Z,77.20
2022-09-06T05:51:19.381Z,77.30
2022-09-06T05:53:46.057Z,77.20
2022-09-06T05:56:14.476Z,77.40
2022-09-06T05:58:41.180Z,77.30
2022-09-06T06:01:07.898Z,77.30
2022-09-06T06:03:34.650Z,77.40
2022-09-06T06:06:01.384Z,77.50
2022-09-06T06:08:28.219Z,77.50
2022-09-06T06:11:00.101Z,77.50
2022-09-06T06:13:29.887Z,77.50
2022-09-06T06:15:56.695Z,77.60
2022-09-06T06:18:23.496Z,77.60
2022-09-06T06:20:50.531Z,77.60
2022-09-06T06:23:17.244Z,77.70
2022-09-06T06:25:43.901Z,77.70
2022-09-06T06:28:10.557Z,77.80
2022-09-06T06:30:37.206Z,77.90
2022-09-06T06:33:03.888Z,78.10
2022-09-06T06:35:30.681Z,78.10
2022-09-06T06:37:57.407Z,79.10
2022-09-06T06:40:24.143Z,78.10
2022-09-06T06:42:50.815Z,78.30
2022-09-06T06:45:17.564Z,78.40
2022-09-06T06:47:44.244Z,78.20
2022-09-06T06:50:11.437Z,78.30
2022-09-06T06:52:39.434Z,78.30
2022-09-06T06:55:06.647Z,78.20
2022-09-06T06:57:33.298Z,78.10
2022-09-06T07:00:00.240Z,78.20
2022-09-06T07:02:26.970Z,78.10
2022-09-06T07:04:53.827Z,77.90
2022-09-06T07:07:38.035Z,77.90
2022-09-06T07:12:54.097Z,77.60
2022-09-06T07:15:20.821Z,77.40
2022-09-06T07:17:47.495Z,77.30
2022-09-06T07:20:14.945Z,77.10
2022-09-06T07:22:42.198Z,77.00
2022-09-06T07:25:11.600Z,76.90
2022-09-06T07:30:14.103Z,76.70
2022-09-06T07:32:40.928Z,76.50
2022-09-06T07:35:08.051Z,76.30
2022-09-06T07:37:34.776Z,76.00
2022-09-06T07:40:01.740Z,76.00
2022-09-06T07:42:35.637Z,75.80
2022-09-06T07:45:04.529Z,75.70
2022-09-06T07:53:11.152Z,75.40
2022-09-06T07:55:41.814Z,75.10
2022-09-06T07:58:08.563Z,74.90
2022-09-06T08:00:35.313Z,74.80
2022-09-06T08:03:02.072Z,74.80
2022-09-06T08:11:02.207Z,74.00
2022-09-06T08:13:29.117Z,73.60
2022-09-06T08:16:04.357Z,73.30
2022-09-06T08:18:31.633Z,72.80
2022-09-06T08:21:11.554Z,72.70
2022-09-06T08:23:47.275Z,72.40
2022-09-06T08:26:15.161Z,72.10
2022-09-06T08:28:41.888Z,71.90
2022-09-06T08:31:13.995Z,72.70
2022-09-06T08:33:41.974Z,71.70
2022-09-06T08:36:09.595Z,71.40
2022-09-06T08:38:36.771Z,71.10
2022-09-06T08:41:10.884Z,70.80
2022-09-06T08:43:38.445Z,70.50
2022-09-06T08:46:07.995Z,69.90
2022-09-06T08:48:39.596Z,69.40
2022-09-06T08:51:40.016Z,68.80
2022-09-06T08:54:40.816Z,68.80
2022-09-06T08:57:35.034Z,68.10
2022-09-06T09:00:11.853Z,67.60
2022-09-06T09:02:46.319Z,66.80
2022-09-06T09:05:34.668Z,66.30
2022-09-06T09:08:22.326Z,65.50
2022-09-06T09:10:58.422Z,64.90
2022-09-06T09:13:47.752Z,64.70
2022-09-06T09:16:15.285Z,63.90
2022-09-06T09:18:45.948Z,63.20
2022-09-06T09:21:13.805Z,63.00
2022-09-06T09:23:40.564Z,62.90
2022-09-06T09:26:14.351Z,62.70
2022-09-06T09:29:09.056Z,61.80
2022-09-06T09:31:37.837Z,62.00
2022-09-06T09:34:05.585Z,61.30
2022-09-06T09:36:33.062Z,60.50
2022-09-06T09:39:00.172Z,60.40
2022-09-06T09:41:36.004Z,60.20
2022-09-06T09:44:06.179Z,60.10
2022-09-06T09:46:35.203Z,60.00
2022-09-06T09:49:29.108Z,59.90
2022-09-06T09:52:12.561Z,59.70
2022-09-06T09:54:42.247Z,59.20
2022-09-06T09:57:12.147Z,58.90
2022-09-06T09:59:53.171Z,59.00
2022-09-06T10:02:33.332Z,59.00
2022-09-06T10:05:07.996Z,58.60
2022-09-06T10:07:41.440Z,58.30
2022-09-06T10:10:20.865Z,58.30
2022-09-06T10:12:48.024Z,58.50
2022-09-06T10:15:35.128Z,58.60
2022-09-06T10:18:02.172Z,58.70
2022-09-06T10:20:53.782Z,58.10
2022-09-06T10:26:53.749Z,57.60
2022-09-06T10:29:53.042Z,56.80
2022-09-06T10:33:03.149Z,56.70
2022-09-06T10:35:37.792Z,57.10
2022-09-06T10:38:35.576Z,56.20
2022-09-06T10:41:33.206Z,55.60
2022-09-06T10:44:03.004Z,55.70
2022-09-06T10:46:34.130Z,55.50
2022-09-06T10:49:00.924Z,54.50
2022-09-06T10:51:45.755Z,54.00
2022-09-06T10:54:24.136Z,54.30
2022-09-06T10:57:03.665Z,53.80
2022-09-06T10:59:53.039Z,53.40
2022-09-06T11:02:48.549Z,53.20
2022-09-06T11:05:39.737Z,53.10
2022-09-06T11:08:46.758Z,52.70
2022-09-06T11:11:23.103Z,52.80
2022-09-06T11:13:49.888Z,52.70
2022-09-06T11:16:28.238Z,52.00
2022-09-06T11:19:04.739Z,51.70
2022-09-06T11:21:34.242Z,51.00
2022-09-06T11:24:41.064Z,51.40
2022-09-06T11:27:33.354Z,52.40
2022-09-06T11:30:01.778Z,52.90
2022-09-06T11:32:38.860Z,52.10
2022-09-06T11:35:20.460Z,51.90
2022-09-06T11:37:50.636Z,52.30
2022-09-06T11:42:52.299Z,51.90
2022-09-06T11:45:22.155Z,51.40
2022-09-06T11:47:50.838Z,50.90
2022-09-06T11:50:20.509Z,50.70
2022-09-06T11:53:03.132Z,50.60
2022-09-06T11:55:41.056Z,49.90
2022-09-06T11:58:22.972Z,49.90
2022-09-06T12:01:20.596Z,50.30
2022-09-06T12:04:09.530Z,50.30
2022-09-06T12:07:01.035Z,50.20
2022-09-06T12:09:39.811Z,50.10
2022-09-06T12:12:07.730Z,50.50
2022-09-06T12:14:46.758Z,50.60
2022-09-06T12:17:13.415Z,50.70
2022-09-06T12:20:05.967Z,50.70
2022-09-06T12:22:32.780Z,50.00
2022-09-06T12:25:18.107Z,50.00
2022-09-06T12:27:59.566Z,50.00
2022-09-06T12:30:39.607Z,50.40
2022-09-06T12:33:11.115Z,50.40
2022-09-06T12:38:25.805Z,50.30
2022-09-06T12:40:58.090Z,50.00
2022-09-06T12:43:25.202Z,50.20
2022-09-06T12:45:52.950Z,50.10
2022-09-06T12:48:31.466Z,50.50
2022-09-06T12:51:06.701Z,50.90
2022-09-06T12:53:34.775Z,50.90
2022-09-06T12:56:07.740Z,50.80
2022-09-06T12:58:35.750Z,50.40
2022-09-06T13:01:14.565Z,50.30
2022-09-06T13:03:53.893Z,50.30
2022-09-06T13:06:26.987Z,50.50
2022-09-06T13:08:57.017Z,50.40
2022-09-06T13:11:30.635Z,50.10
2022-09-06T13:13:57.842Z,49.30
2022-09-06T13:16:27.055Z,48.90
2022-09-06T13:18:54.087Z,48.60
2022-09-06T13:21:27.338Z,48.30
2022-09-06T13:23:54.126Z,48.30
2022-09-06T13:26:34.440Z,48.10
2022-09-06T13:29:23.984Z,48.20
2022-09-06T13:31:52.737Z,48.50
2022-09-06T13:34:31.396Z,47.70
2022-09-06T13:37:02.221Z,48.20
2022-09-06T13:39:38.125Z,48.70
2022-09-06T13:42:09.783Z,48.50
2022-09-06T13:44:38.646Z,48.70
2022-09-06T13:47:05.919Z,49.00
2022-09-06T13:49:33.825Z,49.00
2022-09-06T13:52:02.515Z,48.90
2022-09-06T13:54:30.852Z,48.90
2022-09-06T13:56:57.744Z,49.00
2022-09-06T13:59:25.187Z,49.20
2022-09-06T14:02:07.576Z,48.80
2022-09-06T14:04:35.571Z,48.50
2022-09-06T14:07:02.923Z,48.50
2022-09-06T14:09:30.369Z,48.50
2022-09-06T14:11:57.313Z,49.60
2022-09-06T14:14:24.793Z,48.40
2022-09-06T14:16:51.451Z,48.40
2022-09-06T14:19:18.317Z,48.70
2022-09-06T14:21:44.958Z,48.50
2022-09-06T14:24:11.671Z,48.10
2022-09-06T14:26:38.701Z,47.70
2022-09-06T14:29:06.136Z,48.10
2022-09-06T14:31:32.881Z,48.00
2022-09-06T14:34:01.606Z,47.70
2022-09-06T14:36:31.051Z,47.70
2022-09-06T14:38:59.878Z,47.60
2022-09-06T14:41:27.023Z,47.80
2022-09-06T14:43:55.804Z,47.70
2022-09-06T14:46:23.925Z,47.30
2022-09-06T14:48:58.187Z,47.00
2022-09-06T14:51:25.056Z,46.90
2022-09-06T14:53:55.376Z,46.80
2022-09-06T14:56:23.057Z,46.80
2022-09-06T14:58:50.316Z,47.00
2022-09-06T15:01:20.516Z,47.00
2022-09-06T15:03:51.756Z,47.10
2022-09-06T15:06:20.743Z,47.20
2022-09-06T15:08:48.433Z,47.40
2022-09-06T15:11:29.652Z,47.70
2022-09-06T15:13:57.531Z,47.80
2022-09-06T15:16:24.331Z,47.90
2022-09-06T15:18:51.056Z,47.70
2022-09-06T15:21:17.969Z,47.80
2022-09-06T15:23:44.943Z,47.80
2022-09-06T15:26:15.959Z,48.00
2022-09-06T15:28:44.352Z,48.10
2022-09-06T15:31:13.047Z,48.30
2022-09-06T15:33:40.568Z,48.60
2022-09-06T15:36:10.050Z,48.80
2022-09-06T15:38:41.185Z,49.00
2022-09-06T15:41:13.281Z,49.00
2022-09-06T15:43:47.099Z,49.00
2022-09-06T15:46:15.486Z,48.90
2022-09-06T15:48:47.421Z,49.00
2022-09-06T15:51:17.067Z,48.90
2022-09-06T15:53:44.539Z,48.50
2022-09-06T15:56:14.142Z,48.40
2022-09-06T15:58:40.975Z,48.20
2022-09-06T16:01:13.186Z,48.00
2022-09-06T16:03:48.670Z,47.80
2022-09-06T16:06:26.850Z,47.80
2022-09-06T16:09:00.287Z,47.80
2022-09-06T16:11:28.115Z,47.90
2022-09-06T16:13:54.874Z,47.80
2022-09-06T16:16:22.634Z,47.80
2022-09-06T16:18:49.627Z,48.40
2022-09-06T16:21:24.811Z,48.20
2022-09-06T16:23:58.756Z,48.50
2022-09-06T16:26:28.258Z,48.60
2022-09-06T16:28:55.190Z,48.90
2022-09-06T16:31:22.237Z,49.10
2022-09-06T16:33:49.703Z,49.30
2022-09-06T16:36:17.678Z,49.40
2022-09-06T16:38:44.981Z,49.40
2022-09-06T16:41:43.623Z,49.70
2022-09-06T16:44:15.999Z,49.90
2022-09-06T16:46:44.270Z,50.10
2022-09-06T16:49:10.949Z,50.10
2022-09-06T16:51:37.664Z,50.10
2022-09-06T16:54:04.595Z,50.20
2022-09-06T16:56:34.673Z,50.40
2022-09-06T16:59:03.467Z,50.50
2022-09-06T17:01:32.185Z,50.40
2022-09-06T17:04:02.091Z,50.70
2022-09-06T17:06:29.788Z,50.70
2022-09-06T17:09:00.236Z,50.70
2022-09-06T17:11:28.261Z,50.90
2022-09-06T17:13:57.055Z,50.60
2022-09-06T17:16:43.327Z,50.40
2022-09-06T17:19:10.549Z,50.30
2022-09-06T17:21:39.034Z,50.30
2022-09-06T17:24:06.629Z,50.30
2022-09-06T17:26:35.263Z,50.30
2022-09-06T17:29:02.066Z,50.60
2022-09-06T17:31:29.068Z,50.90
2022-09-06T17:33:56.043Z,51.00
2022-09-06T17:36:25.730Z,50.90
2022-09-06T17:38:53.884Z,51.00
2022-09-06T17:41:27.215Z,51.10
2022-09-06T17:43:55.004Z,52.10
2022-09-06T17:46:28.506Z,51.50
2022-09-06T17:48:56.136Z,52.00
2022-09-06T17:51:23.135Z,52.40
2022-09-06T17:53:50.236Z,52.60
2022-09-06T17:56:18.176Z,52.50
2022-09-06T17:58:55.577Z,52.50
2022-09-06T18:01:24.428Z,52.70
2022-09-06T18:03:51.397Z,52.90
2022-09-06T18:06:22.668Z,53.10
2022-09-06T18:08:51.951Z,53.30
2022-09-06T18:11:25.654Z,53.40
2022-09-06T18:14:12.822Z,53.80
2022-09-06T18:16:40.364Z,53.70
2022-09-06T18:19:08.168Z,54.00
2022-09-06T18:21:37.462Z,53.70
2022-09-06T18:24:05.026Z,53.80
2022-09-06T18:26:31.754Z,54.20
2022-09-06T18:28:58.614Z,54.40
2022-09-06T18:31:27.429Z,54.50
2022-09-06T18:34:00.358Z,54.70
2022-09-06T18:36:32.053Z,54.50
2022-09-06T18:39:03.237Z,54.20
2022-09-06T18:41:49.615Z,54.20
2022-09-06T18:44:17.031Z,54.50
2022-09-06T18:46:43.903Z,54.40
2022-09-06T18:49:13.404Z,54.10
2022-09-06T18:51:40.775Z,54.10
2022-09-06T18:54:07.576Z,54.10
2022-09-06T18:56:34.276Z,53.80
2022-09-06T18:59:02.007Z,53.70
2022-09-06T19:01:29.933Z,53.70
2022-09-06T19:04:00.565Z,53.70
2022-09-06T19:06:29.329Z,53.60
2022-09-06T19:09:00.446Z,54.00
2022-09-06T19:11:27.758Z,54.20
2022-09-06T19:13:55.854Z,54.70
2022-09-06T19:16:23.950Z,55.10
2022-09-06T19:18:51.082Z,55.40
2022-09-06T19:21:19.707Z,56.00
2022-09-06T19:23:53.762Z,56.50
2022-09-06T19:26:22.338Z,56.90
2022-09-06T19:28:53.126Z,57.50
2022-09-06T19:31:20.362Z,57.80
2022-09-06T19:33:48.522Z,58.10
2022-09-06T19:36:16.652Z,58.50
2022-09-06T19:41:31.543Z,58.70
2022-09-06T19:43:59.137Z,58.90
2022-09-06T19:46:26.822Z,59.20
2022-09-06T19:48:55.960Z,59.40
2022-09-06T19:51:23.623Z,59.70
2022-09-06T19:53:53.386Z,60.00
2022-09-06T19:56:25.285Z,60.20
2022-09-06T19:58:57.365Z,60.50
2022-09-06T20:01:26.391Z,60.80
2022-09-06T20:03:53.607Z,60.80
2022-09-06T20:06:22.332Z,60.90
2022-09-06T20:08:53.694Z,61.20
2022-09-06T20:11:25.959Z,61.20
2022-09-06T20:13:52.998Z,61.30
2022-09-06T20:16:21.204Z,61.40
2022-09-06T20:18:48.902Z,61.60
2022-09-06T20:21:18.152Z,61.70
2022-09-06T20:23:49.980Z,61.80
2022-09-06T20:26:17.900Z,62.10
2022-09-06T20:28:45.238Z,62.10
2022-09-06T20:31:16.218Z,62.30
2022-09-06T20:33:47.151Z,62.40
2022-09-06T20:36:17.222Z,62.50
2022-09-06T20:38:45.396Z,62.50
2022-09-06T20:41:18.187Z,62.50
2022-09-06T20:43:46.508Z,62.70
2022-09-06T20:46:18.444Z,62.70
2022-09-06T20:48:46.150Z,63.00
2022-09-06T20:51:19.055Z,63.00
2022-09-06T20:53:48.319Z,63.00
2022-09-06T20:56:18.225Z,63.40
2022-09-06T20:58:49.863Z,64.20
2022-09-06T21:01:22.903Z,65.10
2022-09-06T21:03:57.950Z,65.90
2022-09-06T21:06:26.919Z,67.40
2022-09-06T21:08:53.883Z,68.20
2022-09-06T21:11:20.952Z,68.30
2022-09-06T21:13:56.367Z,68.90
2022-09-06T21:16:25.642Z,68.80
2022-09-06T21:18:53.913Z,68.90
2022-09-06T21:21:22.136Z,69.40
2022-09-06T21:23:49.315Z,69.70
2022-09-06T21:26:16.096Z,69.70
2022-09-06T21:28:43.908Z,69.60
2022-09-06T21:31:13.351Z,69.80
2022-09-06T21:33:43.135Z,69.90
2022-09-06T21:36:12.884Z,70.00
2022-09-06T21:38:42.515Z,70.00
2022-09-06T21:41:10.391Z,69.80
2022-09-06T21:43:37.555Z,69.70
2022-09-06T21:46:06.686Z,69.60
2022-09-06T21:48:38.341Z,69.90
2022-09-06T21:51:10.474Z,70.20
2022-09-06T21:53:37.644Z,69.50
2022-09-06T21:56:05.404Z,69.00
2022-09-06T21:58:32.729Z,68.60
2022-09-06T22:01:01.289Z,68.10
2022-09-06T22:03:30.123Z,68.20
2022-09-06T22:05:56.996Z,67.60
2022-09-06T22:08:24.619Z,67.70
2022-09-06T22:10:51.447Z,67.50
2022-09-06T22:13:19.888Z,68.00
2022-09-06T22:15:46.642Z,68.20
2022-09-06T22:18:13.524Z,68.60
2022-09-06T22:20:40.279Z,69.10
2022-09-06T22:23:08.326Z,69.60
2022-09-06T22:25:35.101Z,70.30
2022-09-06T22:28:01.958Z,70.90
2022-09-06T22:30:28.609Z,71.40
2022-09-06T22:32:55.283Z,71.80
2022-09-06T22:35:22.160Z,72.00
2022-09-06T22:37:48.817Z,72.50
2022-09-06T22:40:15.530Z,73.00
2022-09-06T22:42:42.175Z,73.80
2022-09-06T22:45:09.216Z,74.00
2022-09-06T22:47:35.854Z,74.20
2022-09-06T22:50:02.497Z,74.50
2022-09-06T22:52:29.127Z,75.00
2022-09-06T22:54:55.784Z,75.10
2022-09-06T22:57:22.472Z,75.00
2022-09-06T22:59:49.105Z,75.20
2022-09-06T23:02:15.843Z,75.80
2022-09-06T23:04:42.628Z,76.40
2022-09-06T23:07:09.339Z,76.60
2022-09-06T23:09:36.148Z,77.80
2022-09-06T23:12:03.535Z,77.20
2022-09-06T23:14:30.227Z,77.30
2022-09-06T23:16:56.910Z,77.80
2022-09-06T23:19:23.548Z,78.20
2022-09-06T23:21:50.209Z,78.40
2022-09-06T23:24:16.855Z,78.60
2022-09-06T23:26:43.487Z,79.00
2022-09-06T23:29:10.191Z,79.30
2022-09-06T23:31:36.920Z,79.50
2022-09-06T23:34:03.775Z,79.60
2022-09-06T23:36:31.632Z,79.70
2022-09-06T23:38:58.652Z,79.70
2022-09-06T23:41:25.589Z,79.80
2022-09-06T23:43:52.377Z,79.90
2022-09-06T23:46:19.464Z,79.90
2022-09-06T23:48:46.570Z,80.00
2022-09-06T23:51:13.546Z,80.20
2022-09-06T23:53:40.283Z,80.20
2022-09-06T23:56:08.064Z,80.50
2022-09-06T23:58:35.569Z,80.80
